createdAt,value
2018-08-04T00:00:15.985Z,13.93
2018-08-04T00:02:45.602Z,14.03
2018-08-04T00:05:15.376Z,13.93
2018-08-04T00:07:45.068Z,12.23
2018-08-04T00:10:18.670Z,12.17
2018-08-04T00:12:51.622Z,13.13
2018-08-04T00:15:21.794Z,11.80
2018-08-04T00:17:51.649Z,13.47
2018-08-04T00:20:21.546Z,13.40
2018-08-04T00:22:51.123Z,13.30
2018-08-04T00:25:21.023Z,12.50
2018-08-04T00:27:51.048Z,12.40
2018-08-04T00:30:20.613Z,12.63
2018-08-04T00:32:50.162Z,13.30
2018-08-04T00:35:19.733Z,13.37
2018-08-04T00:37:49.474Z,12.73
2018-08-04T00:40:19.256Z,12.90
2018-08-04T00:42:48.971Z,14.03
2018-08-04T00:45:18.969Z,14.20
2018-08-04T00:47:48.815Z,12.80
2018-08-04T00:50:18.842Z,13.83
2018-08-04T00:52:48.662Z,12.30
2018-08-04T00:55:18.339Z,13.27
2018-08-04T00:57:48.154Z,12.63
2018-08-04T01:00:17.746Z,13.37
2018-08-04T01:02:47.291Z,13.57
2018-08-04T01:05:17.020Z,13.10
2018-08-04T01:07:46.988Z,12.63
2018-08-04T01:10:16.732Z,12.40
2018-08-04T01:12:46.551Z,12.60
2018-08-04T01:15:16.543Z,13.27
2018-08-04T01:17:46.457Z,13.40
2018-08-04T01:20:16.434Z,14.03
2018-08-04T01:22:46.301Z,13.80
2018-08-04T01:25:16.250Z,14.20
2018-08-04T01:27:46.048Z,13.90
2018-08-04T01:30:16.099Z,14.10
2018-08-04T01:32:45.803Z,13.03
2018-08-04T01:35:15.720Z,14.03
2018-08-04T01:37:45.494Z,13.70
2018-08-04T01:40:15.078Z,13.80
2018-08-04T01:42:44.648Z,14.00
2018-08-04T01:45:14.359Z,13.73
2018-08-04T01:47:43.912Z,14.50
2018-08-04T01:50:13.863Z,14.03
2018-08-04T01:52:43.848Z,16.33
2018-08-04T01:55:13.527Z,15.10
2018-08-04T01:57:43.313Z,14.23
2018-08-04T02:00:13.098Z,15.70
2018-08-04T02:02:42.858Z,16.23
2018-08-04T02:05:12.651Z,16.17
2018-08-04T02:07:42.390Z,14.83
2018-08-04T02:10:12.223Z,15.63
2018-08-04T02:12:42.162Z,14.57
2018-08-04T02:15:11.943Z,14.90
2018-08-04T02:17:41.679Z,15.03
2018-08-04T02:20:11.519Z,14.90
2018-08-04T02:22:41.186Z,15.40
2018-08-04T02:25:11.006Z,14.67
2018-08-04T02:27:40.636Z,15.43
2018-08-04T02:30:10.212Z,14.67
2018-08-04T02:32:39.825Z,15.23
2018-08-04T02:35:09.607Z,13.57
2018-08-04T02:37:39.278Z,15.43
2018-08-04T02:40:09.326Z,14.00
2018-08-04T02:42:39.075Z,14.17
2018-08-04T02:45:09.194Z,14.27
2018-08-04T02:47:39.217Z,14.17
2018-08-04T02:50:09.749Z,13.40
2018-08-04T02:52:39.400Z,13.67
2018-08-04T02:55:09.120Z,13.50
2018-08-04T02:57:38.905Z,13.77
2018-08-04T03:00:08.553Z,15.27
2018-08-04T03:02:38.311Z,14.97
2018-08-04T03:05:09.011Z,14.80
2018-08-04T03:07:38.618Z,15.17
2018-08-04T03:10:08.626Z,15.73
2018-08-04T03:12:38.210Z,15.43
2018-08-04T03:15:08.314Z,16.40
2018-08-04T03:17:38.057Z,15.43
2018-08-04T03:20:08.466Z,16.20
2018-08-04T03:22:38.516Z,16.60
2018-08-04T03:25:08.655Z,17.27
2018-08-04T03:27:38.255Z,14.63
2018-08-04T03:30:07.907Z,15.77
2018-08-04T03:32:37.490Z,15.87
2018-08-04T03:35:07.362Z,18.20
2018-08-04T03:37:37.084Z,16.60
2018-08-04T03:40:06.967Z,15.83
2018-08-04T03:42:36.896Z,15.90
2018-08-04T03:45:06.869Z,18.03
2018-08-04T03:47:36.646Z,16.00
2018-08-04T03:50:07.373Z,15.70
2018-08-04T03:52:37.322Z,15.73
2018-08-04T03:55:07.216Z,16.07
2018-08-04T03:57:37.218Z,15.43
2018-08-04T04:00:07.351Z,15.23
2018-08-04T04:02:37.002Z,15.47
2018-08-04T04:05:06.969Z,15.67
2018-08-04T04:07:36.944Z,15.43
2018-08-04T04:10:06.886Z,16.17
2018-08-04T04:12:36.678Z,17.90
2018-08-04T04:15:07.395Z,16.13
2018-08-04T04:17:43.670Z,16.43
2018-08-04T04:20:13.598Z,15.97
2018-08-04T04:22:43.407Z,18.63
2018-08-04T04:25:13.487Z,17.90
2018-08-04T04:27:43.612Z,15.93
2018-08-04T04:30:13.811Z,16.53
2018-08-04T04:32:43.534Z,17.00
2018-08-04T04:35:13.277Z,15.60
2018-08-04T04:37:42.958Z,15.63
2018-08-04T04:40:12.815Z,15.10
2018-08-04T04:42:42.875Z,15.60
2018-08-04T04:45:12.640Z,14.73
2018-08-04T04:47:42.400Z,16.77
2018-08-04T04:50:12.250Z,16.57
2018-08-04T04:52:41.923Z,16.17
2018-08-04T04:55:11.906Z,17.07
2018-08-04T04:57:41.558Z,14.80
2018-08-04T05:00:11.082Z,14.33
2018-08-04T05:02:40.718Z,14.93
2018-08-04T05:05:10.940Z,14.63
2018-08-04T05:07:40.550Z,14.53
2018-08-04T05:10:10.464Z,13.40
2018-08-04T05:12:40.236Z,15.17
2018-08-04T05:15:10.100Z,15.13
2018-08-04T05:17:40.165Z,14.73
2018-08-04T05:20:09.881Z,12.30
2018-08-04T05:22:39.690Z,13.83
2018-08-04T05:25:09.603Z,15.50
2018-08-04T05:27:39.336Z,14.33
2018-08-04T05:30:09.039Z,17.13
2018-08-04T05:32:38.836Z,16.43
2018-08-04T05:35:08.545Z,18.63
2018-08-04T05:37:38.319Z,15.67
2018-08-04T05:40:08.483Z,14.33
2018-08-04T05:42:38.347Z,17.37
2018-08-04T05:45:09.123Z,17.67
2018-08-04T05:47:39.174Z,17.20
2018-08-04T05:50:09.145Z,17.67
2018-08-04T05:52:39.343Z,16.60
2018-08-04T05:55:09.277Z,19.43
2018-08-04T05:57:38.843Z,13.33
2018-08-04T06:00:09.382Z,14.33
2018-08-04T06:02:39.133Z,15.70
2018-08-04T06:05:09.275Z,15.00
2018-08-04T06:07:39.238Z,15.80
2018-08-04T06:10:09.185Z,14.47
2018-08-04T06:12:38.875Z,13.53
2018-08-04T06:15:08.622Z,15.10
2018-08-04T06:17:38.383Z,14.93
2018-08-04T06:20:08.162Z,15.63
2018-08-04T06:22:38.190Z,15.27
2018-08-04T06:25:08.076Z,17.00
2018-08-04T06:27:37.678Z,18.50
2018-08-04T06:30:08.875Z,16.80
2018-08-04T06:32:38.798Z,16.10
2018-08-04T06:35:08.514Z,17.47
2018-08-04T06:37:38.231Z,16.67
2018-08-04T06:40:08.442Z,15.57
2018-08-04T06:42:38.102Z,15.93
2018-08-04T06:45:07.967Z,14.77
2018-08-04T06:47:37.736Z,14.20
2018-08-04T06:50:08.199Z,11.77
2018-08-04T06:52:38.156Z,11.37
2018-08-04T06:55:08.149Z,13.20
2018-08-04T06:57:37.766Z,11.17
2018-08-04T07:01:58.824Z,11.87
2018-08-04T07:04:28.834Z,10.83
2018-08-04T07:06:58.634Z,10.63
2018-08-04T07:09:28.353Z,10.43
2018-08-04T07:11:58.493Z,11.30
2018-08-04T07:14:28.194Z,10.00
2018-08-04T07:16:58.074Z,9.37
2018-08-04T07:19:28.221Z,10.27
2018-08-04T07:21:58.062Z,10.53
2018-08-04T07:24:27.926Z,10.50
2018-08-04T07:26:57.482Z,9.65
2018-08-04T07:29:27.185Z,10.77
2018-08-04T07:31:57.159Z,9.73
2018-08-04T07:34:27.051Z,8.58
2018-08-04T07:36:56.814Z,7.72
2018-08-04T07:39:26.654Z,8.78
2018-08-04T07:41:56.505Z,6.70
2018-08-04T07:44:26.178Z,8.23
2018-08-04T07:46:55.963Z,6.50
2018-08-04T07:49:31.400Z,8.55
2018-08-04T07:52:01.406Z,9.15
2018-08-04T07:54:30.956Z,7.10
2018-08-04T07:57:00.498Z,6.25
2018-08-04T07:59:30.285Z,6.10
2018-08-04T08:02:00.086Z,6.05
2018-08-04T08:04:29.762Z,6.35
2018-08-04T08:06:59.713Z,6.30
2018-08-04T08:09:29.676Z,7.75
2018-08-04T08:11:59.472Z,9.05
2018-08-04T08:14:29.133Z,6.17
2018-08-04T08:16:58.815Z,8.58
2018-08-04T08:19:28.851Z,8.00
2018-08-04T08:21:58.506Z,6.15
2018-08-04T08:24:28.238Z,6.10
2018-08-04T08:26:57.883Z,6.15
2018-08-04T08:29:27.466Z,5.10
2018-08-04T08:31:57.322Z,6.20
2018-08-04T08:34:27.272Z,5.80
2018-08-04T08:36:57.350Z,7.67
2018-08-04T08:39:26.990Z,5.65
2018-08-04T08:41:56.748Z,5.53
2018-08-04T08:44:26.475Z,5.65
2018-08-04T08:46:56.316Z,7.08
2018-08-04T08:49:26.054Z,6.47
2018-08-04T08:51:55.535Z,6.30
2018-08-04T08:54:25.101Z,10.32
2018-08-04T08:56:55.147Z,4.85
2018-08-04T08:59:24.907Z,5.92
2018-08-04T09:01:54.731Z,5.20
2018-08-04T09:04:24.408Z,7.95
2018-08-04T09:06:54.516Z,5.97
2018-08-04T09:09:24.352Z,6.10
2018-08-04T09:11:54.319Z,5.05
2018-08-04T09:14:24.292Z,5.45
2018-08-04T09:16:54.029Z,5.17
2018-08-04T09:19:23.899Z,5.35
2018-08-04T09:21:53.638Z,5.15
2018-08-04T09:24:23.561Z,5.35
2018-08-04T09:26:53.429Z,5.97
2018-08-04T09:29:23.218Z,5.08
2018-08-04T09:31:53.087Z,5.45
2018-08-04T09:34:23.159Z,6.33
2018-08-04T09:36:52.804Z,5.47
2018-08-04T09:39:22.547Z,5.30
2018-08-04T09:41:52.252Z,4.67
2018-08-04T09:44:21.966Z,6.47
2018-08-04T09:46:51.873Z,8.38
2018-08-04T09:49:21.803Z,4.28
2018-08-04T09:51:52.078Z,4.33
2018-08-04T09:54:21.731Z,8.85
2018-08-04T09:56:51.387Z,5.00
2018-08-04T09:59:21.463Z,5.78
2018-08-04T10:01:55.282Z,5.92
2018-08-04T10:04:25.278Z,4.67
2018-08-04T10:06:55.711Z,4.15
2018-08-04T10:09:25.489Z,4.22
2018-08-04T10:11:55.139Z,4.67
2018-08-04T10:14:25.213Z,4.15
2018-08-04T10:16:55.104Z,4.35
2018-08-04T10:19:25.265Z,3.95
2018-08-04T10:21:55.272Z,3.72
2018-08-04T10:24:24.913Z,4.50
2018-08-04T10:26:54.942Z,4.53
2018-08-04T10:29:24.686Z,5.08
2018-08-04T10:31:54.749Z,3.98
2018-08-04T10:34:24.807Z,3.98
2018-08-04T10:36:54.504Z,4.50
2018-08-04T10:39:24.189Z,3.80
2018-08-04T10:41:53.878Z,3.92
2018-08-04T10:44:23.718Z,5.20
2018-08-04T10:46:53.723Z,4.17
2018-08-04T10:49:23.628Z,4.33
2018-08-04T10:51:53.317Z,4.40
2018-08-04T10:54:22.994Z,5.22
2018-08-04T10:56:52.622Z,4.10
2018-08-04T10:59:22.343Z,4.10
2018-08-04T11:01:52.328Z,6.00
2018-08-04T11:04:22.345Z,4.55
2018-08-04T11:06:52.059Z,4.03
2018-08-04T11:09:21.747Z,4.45
2018-08-04T11:11:51.427Z,4.97
2018-08-04T11:14:21.114Z,4.60
2018-08-04T11:16:51.446Z,3.90
2018-08-04T11:19:21.383Z,5.25
2018-08-04T11:21:51.439Z,7.08
2018-08-04T11:24:21.339Z,4.50
2018-08-04T11:26:51.257Z,5.15
2018-08-04T11:29:21.657Z,5.20
2018-08-04T11:31:51.659Z,5.12
2018-08-04T11:34:21.590Z,5.10
2018-08-04T11:36:51.622Z,5.10
2018-08-04T11:39:21.323Z,4.97
2018-08-04T11:41:51.191Z,5.08
2018-08-04T11:44:21.492Z,5.03
2018-08-04T11:46:51.402Z,4.45
2018-08-04T11:49:21.315Z,4.33
2018-08-04T11:51:51.167Z,4.45
2018-08-04T11:54:21.125Z,5.60
2018-08-04T11:56:50.978Z,7.50
2018-08-04T11:59:20.535Z,4.42
2018-08-04T12:01:50.229Z,5.03
2018-08-04T12:04:20.047Z,4.70
2018-08-04T12:06:50.116Z,4.95
2018-08-04T12:09:20.342Z,4.85
2018-08-04T12:11:50.368Z,4.92
2018-08-04T12:14:20.136Z,4.45
2018-08-04T12:16:50.166Z,4.45
2018-08-04T12:19:19.876Z,4.75
2018-08-04T12:21:49.461Z,8.20
2018-08-04T12:24:18.956Z,5.30
2018-08-04T12:26:48.943Z,4.85
2018-08-04T12:29:18.543Z,4.97
2018-08-04T12:31:48.480Z,3.72
2018-08-04T12:34:18.564Z,5.08
2018-08-04T12:36:48.361Z,5.20
2018-08-04T12:39:18.340Z,4.45
2018-08-04T12:41:48.432Z,4.53
2018-08-04T12:44:18.158Z,4.78
2018-08-04T12:46:47.918Z,4.47
2018-08-04T12:49:17.399Z,5.17
2018-08-04T12:51:47.142Z,5.47
2018-08-04T12:54:16.988Z,4.75
2018-08-04T12:56:46.674Z,4.45
2018-08-04T12:59:16.175Z,4.78
2018-08-04T13:01:45.881Z,4.42
2018-08-04T13:04:15.800Z,4.30
2018-08-04T13:06:45.702Z,4.35
2018-08-04T13:09:15.289Z,4.72
2018-08-04T13:11:44.871Z,4.50
2018-08-04T13:14:14.693Z,4.83
2018-08-04T13:16:44.518Z,5.83
2018-08-04T13:19:14.150Z,4.97
2018-08-04T13:21:43.870Z,5.10
2018-08-04T13:24:13.530Z,3.98
2018-08-04T13:26:43.330Z,4.33
2018-08-04T13:29:12.901Z,6.28
2018-08-04T13:31:42.879Z,4.40
2018-08-04T13:34:12.551Z,5.05
2018-08-04T13:36:42.442Z,5.50
2018-08-04T13:39:12.414Z,7.55
2018-08-04T13:41:42.481Z,4.28
2018-08-04T13:44:12.437Z,5.67
2018-08-04T13:46:42.318Z,4.90
2018-08-04T13:49:12.061Z,4.00
2018-08-04T13:51:41.842Z,3.75
2018-08-04T13:54:11.578Z,4.50
2018-08-04T13:56:41.122Z,5.00
2018-08-04T13:59:10.782Z,5.17
2018-08-04T14:01:40.504Z,4.90
2018-08-04T14:04:10.403Z,5.72
2018-08-04T14:06:40.190Z,4.70
2018-08-04T14:09:11.273Z,5.05
2018-08-04T14:11:40.990Z,5.17
2018-08-04T14:14:10.847Z,5.12
2018-08-04T14:16:40.450Z,5.00
2018-08-04T14:19:10.062Z,5.03
2018-08-04T14:21:40.050Z,3.80
2018-08-04T14:24:10.111Z,5.37
2018-08-04T14:26:40.142Z,4.25
2018-08-04T14:29:10.370Z,4.17
2018-08-04T14:31:40.484Z,4.70
2018-08-04T14:34:10.638Z,4.33
2018-08-04T14:36:40.336Z,4.37
2018-08-04T14:39:12.446Z,4.65
2018-08-04T14:41:42.843Z,4.55
2018-08-04T14:44:12.654Z,5.47
2018-08-04T14:46:42.377Z,4.22
2018-08-04T14:49:11.994Z,5.05
2018-08-04T14:51:41.913Z,4.08
2018-08-04T14:54:11.959Z,5.33
2018-08-04T14:56:41.748Z,8.25
2018-08-04T14:59:11.642Z,5.75
2018-08-04T15:01:41.598Z,5.33
2018-08-04T15:04:11.606Z,4.90
2018-08-04T15:06:41.712Z,5.17
2018-08-04T15:09:12.708Z,4.15
2018-08-04T15:11:42.756Z,5.70
2018-08-04T15:14:12.473Z,4.55
2018-08-04T15:16:42.297Z,4.03
2018-08-04T15:19:11.994Z,5.45
2018-08-04T15:21:42.186Z,5.15
2018-08-04T15:24:11.990Z,4.65
2018-08-04T15:26:41.979Z,6.42
2018-08-04T15:29:11.657Z,4.05
2018-08-04T15:31:41.363Z,4.55
2018-08-04T15:34:11.115Z,4.25
2018-08-04T15:36:40.752Z,4.05
2018-08-04T15:39:11.061Z,4.10
2018-08-04T15:41:41.170Z,5.03
2018-08-04T15:44:11.324Z,3.67
2018-08-04T15:46:41.279Z,5.40
2018-08-04T15:49:11.323Z,4.33
2018-08-04T15:51:40.937Z,4.08
2018-08-04T15:54:10.794Z,4.67
2018-08-04T15:56:40.599Z,4.47
2018-08-04T15:59:10.346Z,5.17
2018-08-04T16:01:39.950Z,3.92
2018-08-04T16:04:09.886Z,4.42
2018-08-04T16:06:39.399Z,4.45
2018-08-04T16:09:10.378Z,4.65
2018-08-04T16:11:41.448Z,4.42
2018-08-04T16:14:11.572Z,5.03
2018-08-04T16:16:41.614Z,4.05
2018-08-04T16:19:11.459Z,4.58
2018-08-04T16:21:41.147Z,4.35
2018-08-04T16:24:10.858Z,5.78
2018-08-04T16:26:40.774Z,5.95
2018-08-04T16:29:10.810Z,5.20
2018-08-04T16:31:40.600Z,4.20
2018-08-04T16:34:10.353Z,4.72
2018-08-04T16:36:39.889Z,4.30
2018-08-04T16:39:10.490Z,4.87
2018-08-04T16:41:40.699Z,4.60
2018-08-04T16:44:10.459Z,6.65
2018-08-04T16:46:40.269Z,5.15
2018-08-04T16:49:09.980Z,5.70
2018-08-04T16:51:39.904Z,5.62
2018-08-04T16:54:09.606Z,7.95
2018-08-04T16:56:39.378Z,6.33
2018-08-04T16:59:09.374Z,5.55
2018-08-04T17:01:39.338Z,4.87
2018-08-04T17:04:08.987Z,4.45
2018-08-04T17:06:38.599Z,5.47
2018-08-04T17:09:10.748Z,6.20
2018-08-04T17:11:40.723Z,6.20
2018-08-04T17:14:10.578Z,5.35
2018-08-04T17:16:40.227Z,6.40
2018-08-04T17:19:10.046Z,5.75
2018-08-04T17:21:39.719Z,5.60
2018-08-04T17:24:09.631Z,5.75
2018-08-04T17:26:39.547Z,5.42
2018-08-04T17:29:09.290Z,6.28
2018-08-04T17:31:39.071Z,5.08
2018-08-04T17:34:08.723Z,7.42
2018-08-04T17:36:38.351Z,7.15
2018-08-04T17:39:09.971Z,7.45
2018-08-04T17:41:40.011Z,6.60
2018-08-04T17:44:09.974Z,5.95
2018-08-04T17:46:39.835Z,6.95
2018-08-04T17:49:09.500Z,6.50
2018-08-04T17:51:39.210Z,5.92
2018-08-04T17:54:08.991Z,6.22
2018-08-04T17:56:38.801Z,6.65
2018-08-04T17:59:08.551Z,6.45
2018-08-04T18:01:38.148Z,8.50
2018-08-04T18:04:07.874Z,8.18
2018-08-04T18:06:37.570Z,7.10
2018-08-04T18:09:09.422Z,8.15
2018-08-04T18:11:40.322Z,12.35
2018-08-04T18:14:10.087Z,9.18
2018-08-04T18:16:40.124Z,11.28
2018-08-04T18:19:09.715Z,11.05
2018-08-04T18:21:39.423Z,9.28
2018-08-04T18:24:09.094Z,19.30
2018-08-04T18:26:39.130Z,7.90
2018-08-04T18:29:08.962Z,8.83
2018-08-04T18:31:38.554Z,8.15
2018-08-04T18:34:08.176Z,8.28
2018-08-04T18:36:37.762Z,9.83
2018-08-04T18:39:08.822Z,8.23
2018-08-04T18:41:38.647Z,9.30
2018-08-04T18:44:08.836Z,8.53
2018-08-04T18:46:38.744Z,8.50
2018-08-04T18:49:08.598Z,9.77
2018-08-04T18:51:38.196Z,8.30
2018-08-04T18:54:08.083Z,8.20
2018-08-04T18:56:37.957Z,6.77
2018-08-04T18:59:07.653Z,12.63
2018-08-04T19:01:37.143Z,7.50
2018-08-04T19:04:06.663Z,8.30
2018-08-04T19:06:36.251Z,7.93
2018-08-04T19:09:08.894Z,10.80
2018-08-04T19:11:38.645Z,12.30
2018-08-04T19:14:09.165Z,9.60
2018-08-04T19:16:39.169Z,10.73
2018-08-04T19:19:09.033Z,13.23
2018-08-04T19:21:38.748Z,8.17
2018-08-04T19:24:08.592Z,8.17
2018-08-04T19:26:38.101Z,8.90
2018-08-04T19:29:07.848Z,9.10
2018-08-04T19:31:37.412Z,9.60
2018-08-04T19:34:07.055Z,8.43
2018-08-04T19:36:36.609Z,8.43
2018-08-04T19:39:08.531Z,9.83
2018-08-04T19:41:38.354Z,10.77
2018-08-04T19:44:08.182Z,8.17
2018-08-04T19:46:37.899Z,9.57
2018-08-04T19:49:07.536Z,8.07
2018-08-04T19:51:37.630Z,8.90
2018-08-04T19:54:07.378Z,7.90
2018-08-04T19:56:37.191Z,8.83
2018-08-04T19:59:07.006Z,7.23
2018-08-04T20:01:36.704Z,6.80
2018-08-04T20:04:06.572Z,6.77
2018-08-04T20:06:36.534Z,7.77
2018-08-04T20:09:08.728Z,6.63
2018-08-04T20:11:38.574Z,6.77
2018-08-04T20:14:08.402Z,7.00
2018-08-04T20:16:37.965Z,6.53
2018-08-04T20:19:07.796Z,7.43
2018-08-04T20:21:37.800Z,7.47
2018-08-04T20:24:07.890Z,6.80
2018-08-04T20:26:37.407Z,6.80
2018-08-04T20:29:07.366Z,6.90
2018-08-04T20:31:37.434Z,6.90
2018-08-04T20:34:07.013Z,7.70
2018-08-04T20:36:36.727Z,6.60
2018-08-04T20:39:09.040Z,8.33
2018-08-04T20:41:38.650Z,7.40
2018-08-04T20:44:08.551Z,7.43
2018-08-04T20:46:38.575Z,7.60
2018-08-04T20:49:08.595Z,6.80
2018-08-04T20:51:38.359Z,7.30
2018-08-04T20:54:08.436Z,6.67
2018-08-04T20:56:38.603Z,6.70
2018-08-04T20:59:08.222Z,7.23
2018-08-04T21:01:47.718Z,6.67
2018-08-04T21:04:17.570Z,6.57
2018-08-04T21:06:48.048Z,7.57
2018-08-04T21:09:17.835Z,7.60
2018-08-04T21:11:50.582Z,6.47
2018-08-04T21:14:21.691Z,6.80
2018-08-04T21:16:52.336Z,7.13
2018-08-04T21:19:23.026Z,6.93
2018-08-04T21:21:52.658Z,7.07
2018-08-04T21:24:23.837Z,7.73
2018-08-04T21:26:54.678Z,7.97
2018-08-04T21:29:24.804Z,7.23
2018-08-04T21:31:54.496Z,7.40
2018-08-04T21:34:24.200Z,8.20
2018-08-04T21:36:54.038Z,8.50
2018-08-04T21:39:23.939Z,7.53
2018-08-04T21:41:53.984Z,7.50
2018-08-04T21:44:23.938Z,8.07
2018-08-04T21:46:53.922Z,8.53
2018-08-04T21:49:23.636Z,8.50
2018-08-04T21:51:53.495Z,7.70
2018-08-04T21:54:23.304Z,8.50
2018-08-04T21:56:53.270Z,7.77
2018-08-04T21:59:22.947Z,8.30
2018-08-04T22:01:54.845Z,8.67
2018-08-04T22:04:24.947Z,8.30
2018-08-04T22:08:06.879Z,7.87
2018-08-04T22:10:36.829Z,8.07
2018-08-04T22:13:06.991Z,8.07
2018-08-04T22:15:37.077Z,8.47
2018-08-04T22:18:07.138Z,7.63
2018-08-04T22:20:37.163Z,7.73
2018-08-04T22:23:07.300Z,6.50
2018-08-04T22:25:37.414Z,7.27
2018-08-04T22:28:07.198Z,7.43
2018-08-04T22:30:36.930Z,7.57
2018-08-04T22:33:07.015Z,7.03
2018-08-04T22:35:37.083Z,6.47
2018-08-04T22:38:07.141Z,6.23
2018-08-04T22:40:37.219Z,6.43
2018-08-04T22:43:07.399Z,6.57
2018-08-04T22:46:11.419Z,7.50
2018-08-04T22:48:42.335Z,6.97
2018-08-04T22:51:12.404Z,6.13
2018-08-04T22:53:42.562Z,7.03
2018-08-04T22:56:12.558Z,6.63
2018-08-04T22:58:42.251Z,6.50
2018-08-04T23:01:11.901Z,7.33
2018-08-04T23:03:41.630Z,6.97
2018-08-04T23:06:11.763Z,6.93
2018-08-04T23:08:41.674Z,6.53
2018-08-04T23:11:11.739Z,6.53
2018-08-04T23:13:41.689Z,6.17
2018-08-04T23:16:11.864Z,7.60
2018-08-04T23:18:41.910Z,6.17
2018-08-04T23:21:12.105Z,6.33
2018-08-04T23:23:42.150Z,7.43
2018-08-04T23:26:12.234Z,6.90
2018-08-04T23:28:42.323Z,7.40
2018-08-04T23:31:12.004Z,7.67
2018-08-04T23:33:41.716Z,7.33
2018-08-04T23:36:11.834Z,7.97
2018-08-04T23:38:41.800Z,8.23
2018-08-04T23:41:11.879Z,7.57
2018-08-04T23:43:41.873Z,7.23
2018-08-04T23:46:11.574Z,7.57
2018-08-04T23:48:41.377Z,8.43
2018-08-04T23:51:11.187Z,7.70
2018-08-04T23:53:41.030Z,7.50
2018-08-04T23:56:10.931Z,7.27
2018-08-04T23:58:40.467Z,7.10
